WAT5182 YSCB-YMML
Flight info
| Callsign | WAT5182 |
|---|---|
| Flight time | 0h 48m |
| Altitude | 32000 |
| Route | CB Q215 TANTA Q29 ML |
| Aircraft | A333/H-SDE3GHIJ2J3J5M1RVWXY/LB2D1 |
Departure
| Time | 2026-05-05 22:37 |
|---|---|
| Airport | Canberra Airport (YSCB) |
Arrival
| Time | 2026-05-05 23:25 |
|---|---|
| Airport | Melbourne Airport (YMML) |
| Time | Latitude | Longitude | Altitude | Speed | Heading |
|---|---|---|---|---|---|
| 2026-05-05 22:11 | -35.30647 | 149.19063 | 1885 ft | 0 kts | 220° |
| 2026-05-05 22:17 | -35.30646 | 149.19064 | 1885 ft | 2 kts | 220° |
| 2026-05-05 22:17 | -35.30626 | 149.19081 | 1876 ft | 4 kts | 200° |
| 2026-05-05 22:17 | -35.30600 | 149.19087 | 1878 ft | 4 kts | 178° |
| 2026-05-05 22:17 | -35.30583 | 149.19086 | 1880 ft | 1 kts | 179° |
| 2026-05-05 22:18 | -35.30580 | 149.19086 | 1888 ft | 2 kts | 179° |
| 2026-05-05 22:31 | -35.30586 | 149.19086 | 1888 ft | 3 kts | 176° |
| 2026-05-05 22:31 | -35.30635 | 149.19135 | 1877 ft | 14 kts | 117° |
| 2026-05-05 22:31 | -35.30689 | 149.19247 | 1886 ft | 12 kts | 123° |
| 2026-05-05 22:31 | -35.30715 | 149.19291 | 1889 ft | 0 kts | 127° |
| 2026-05-05 22:32 | -35.30722 | 149.19301 | 1878 ft | 4 kts | 129° |
| 2026-05-05 22:32 | -35.30769 | 149.19370 | 1878 ft | 18 kts | 131° |
| 2026-05-05 22:32 | -35.30867 | 149.19507 | 1878 ft | 25 kts | 131° |
| 2026-05-05 22:32 | -35.30978 | 149.19675 | 1877 ft | 23 kts | 130° |
| 2026-05-05 22:33 | -35.31066 | 149.19808 | 1881 ft | 16 kts | 118° |
| 2026-05-05 22:33 | -35.31049 | 149.19883 | 1879 ft | 9 kts | 39° |
| 2026-05-05 22:33 | -35.30995 | 149.19868 | 1876 ft | 11 kts | 317° |
| 2026-05-05 22:33 | -35.30859 | 149.19670 | 1876 ft | 53 kts | 309° |
| 2026-05-05 22:34 | -35.30801 | 149.19442 | 1876 ft | 18 kts | 210° |
| 2026-05-05 22:34 | -35.30915 | 149.19424 | 1878 ft | 21 kts | 180° |
| 2026-05-05 22:34 | -35.31080 | 149.19430 | 1880 ft | 22 kts | 179° |
| 2026-05-05 22:34 | -35.31240 | 149.19429 | 1879 ft | 24 kts | 181° |
| 2026-05-05 22:35 | -35.31412 | 149.19414 | 1877 ft | 26 kts | 190° |
| 2026-05-05 22:35 | -35.31583 | 149.19420 | 1876 ft | 21 kts | 139° |
| 2026-05-05 22:35 | -35.31553 | 149.19585 | 1879 ft | 27 kts | 68° |
| 2026-05-05 22:35 | -35.31632 | 149.19680 | 1879 ft | 22 kts | 192° |
| 2026-05-05 22:36 | -35.31712 | 149.19538 | 1881 ft | 21 kts | 277° |
| 2026-05-05 22:36 | -35.31615 | 149.19448 | 1879 ft | 17 kts | 351° |
| 2026-05-05 22:36 | -35.31481 | 149.19443 | 1878 ft | 31 kts | 359° |
| 2026-05-05 22:36 | -35.31059 | 149.19437 | 1883 ft | 89 kts | 1° |
| 2026-05-05 22:37 | -35.30256 | 149.19445 | 1879 ft | 141 kts | 0° |
| 2026-05-05 22:37 | -35.29139 | 149.19441 | 2135 ft | 169 kts | 359° |
| 2026-05-05 22:37 | -35.27941 | 149.19415 | 2772 ft | 178 kts | 358° |
| 2026-05-05 22:37 | -35.26660 | 149.19358 | 3535 ft | 190 kts | 358° |
| 2026-05-05 22:38 | -35.25337 | 149.19104 | 4234 ft | 197 kts | 339° |
| 2026-05-05 22:38 | -35.24329 | 149.17984 | 4939 ft | 204 kts | 299° |
| 2026-05-05 22:38 | -35.24138 | 149.16195 | 5389 ft | 230 kts | 263° |
| 2026-05-05 22:38 | -35.24803 | 149.14289 | 5721 ft | 259 kts | 238° |
| 2026-05-05 22:39 | -35.26044 | 149.12603 | 6238 ft | 274 kts | 223° |
| 2026-05-05 22:39 | -35.27556 | 149.11148 | 6942 ft | 280 kts | 217° |
| 2026-05-05 22:39 | -35.29172 | 149.09793 | 7716 ft | 282 kts | 215° |
| 2026-05-05 22:39 | -35.30810 | 149.08444 | 8535 ft | 284 kts | 215° |
| 2026-05-05 22:40 | -35.32430 | 149.07064 | 9356 ft | 285 kts | 216° |
| 2026-05-05 22:40 | -35.34037 | 149.05629 | 10203 ft | 287 kts | 218° |
| 2026-05-05 22:40 | -35.35674 | 149.04112 | 10614 ft | 304 kts | 218° |
| 2026-05-05 22:40 | -35.37393 | 149.02473 | 10907 ft | 322 kts | 219° |
| 2026-05-05 22:41 | -35.39193 | 149.00733 | 11243 ft | 338 kts | 219° |
| 2026-05-05 22:41 | -35.41062 | 148.98919 | 11761 ft | 346 kts | 219° |
| 2026-05-05 22:41 | -35.42967 | 148.97069 | 12394 ft | 351 kts | 219° |
| 2026-05-05 22:41 | -35.44893 | 148.95201 | 13044 ft | 356 kts | 219° |
| 2026-05-05 22:42 | -35.46848 | 148.93306 | 13718 ft | 360 kts | 219° |
| 2026-05-05 22:42 | -35.48825 | 148.91392 | 14326 ft | 364 kts | 219° |
| 2026-05-05 22:42 | -35.50821 | 148.89458 | 14939 ft | 367 kts | 219° |
| 2026-05-05 22:42 | -35.52824 | 148.87518 | 15559 ft | 370 kts | 219° |
| 2026-05-05 22:43 | -35.54852 | 148.85554 | 16184 ft | 372 kts | 219° |
| 2026-05-05 22:43 | -35.56893 | 148.83574 | 16836 ft | 374 kts | 219° |
| 2026-05-05 22:43 | -35.58934 | 148.81593 | 17504 ft | 375 kts | 219° |
| 2026-05-05 22:43 | -35.60991 | 148.79596 | 18104 ft | 377 kts | 219° |
| 2026-05-05 22:44 | -35.63055 | 148.77591 | 18694 ft | 380 kts | 219° |
| 2026-05-05 22:44 | -35.65137 | 148.75567 | 19196 ft | 383 kts | 219° |
| 2026-05-05 22:44 | -35.67239 | 148.73520 | 19664 ft | 387 kts | 219° |
| 2026-05-05 22:44 | -35.69356 | 148.71457 | 20133 ft | 390 kts | 219° |
| 2026-05-05 22:45 | -35.71460 | 148.69405 | 20624 ft | 393 kts | 219° |
| 2026-05-05 22:45 | -35.73638 | 148.67280 | 21109 ft | 396 kts | 219° |
| 2026-05-05 22:45 | -35.75812 | 148.65158 | 21571 ft | 399 kts | 219° |
| 2026-05-05 22:45 | -35.77968 | 148.63053 | 22049 ft | 402 kts | 219° |
| 2026-05-05 22:46 | -35.80162 | 148.60908 | 22510 ft | 405 kts | 219° |
| 2026-05-05 22:46 | -35.82405 | 148.58714 | 22975 ft | 408 kts | 219° |
| 2026-05-05 22:46 | -35.84639 | 148.56527 | 23460 ft | 411 kts | 220° |
| 2026-05-05 22:46 | -35.86822 | 148.54295 | 23840 ft | 415 kts | 223° |
| 2026-05-05 22:47 | -35.88796 | 148.51709 | 24202 ft | 417 kts | 230° |
| 2026-05-05 22:47 | -35.90618 | 148.48922 | 24609 ft | 417 kts | 232° |
| 2026-05-05 22:47 | -35.92375 | 148.46062 | 25003 ft | 418 kts | 232° |
| 2026-05-05 22:47 | -35.94117 | 148.43178 | 25379 ft | 419 kts | 231° |
| 2026-05-05 22:48 | -35.95850 | 148.40297 | 25710 ft | 421 kts | 232° |
| 2026-05-05 22:48 | -35.97568 | 148.37339 | 26090 ft | 422 kts | 234° |
| 2026-05-05 22:48 | -35.99228 | 148.34355 | 26480 ft | 423 kts | 236° |
| 2026-05-05 22:48 | -36.00852 | 148.31307 | 26856 ft | 425 kts | 237° |
| 2026-05-05 22:49 | -36.02450 | 148.28226 | 27223 ft | 427 kts | 239° |
| 2026-05-05 22:49 | -36.04044 | 148.25122 | 27607 ft | 429 kts | 239° |
| 2026-05-05 22:49 | -36.05679 | 148.22021 | 27994 ft | 431 kts | 239° |
| 2026-05-05 22:49 | -36.07318 | 148.18920 | 28359 ft | 433 kts | 239° |
| 2026-05-05 22:50 | -36.08966 | 148.15810 | 28766 ft | 432 kts | 246° |
| 2026-05-05 22:50 | -36.11926 | 148.09281 | 28953 ft | 439 kts | 248° |
| 2026-05-05 22:50 | -36.13453 | 148.06004 | 29177 ft | 440 kts | 247° |
| 2026-05-05 22:51 | -36.15060 | 148.02784 | 29427 ft | 440 kts | 245° |
| 2026-05-05 22:51 | -36.16729 | 147.99612 | 29640 ft | 441 kts | 244° |
| 2026-05-05 22:51 | -36.18447 | 147.96455 | 29841 ft | 442 kts | 244° |
| 2026-05-05 22:51 | -36.20191 | 147.93311 | 30039 ft | 443 kts | 243° |
| 2026-05-05 22:52 | -36.21940 | 147.90184 | 30259 ft | 443 kts | 243° |
| 2026-05-05 22:52 | -36.23703 | 147.87043 | 30469 ft | 443 kts | 243° |
| 2026-05-05 22:52 | -36.25458 | 147.83901 | 30616 ft | 444 kts | 243° |
| 2026-05-05 22:52 | -36.27213 | 147.80747 | 30748 ft | 446 kts | 244° |
| 2026-05-05 22:53 | -36.28973 | 147.77576 | 30853 ft | 447 kts | 244° |
| 2026-05-05 22:53 | -36.30737 | 147.74404 | 31015 ft | 448 kts | 244° |
| 2026-05-05 22:53 | -36.32503 | 147.71226 | 31183 ft | 448 kts | 244° |
| 2026-05-05 22:53 | -36.34270 | 147.68029 | 31352 ft | 449 kts | 244° |
| 2026-05-05 22:54 | -36.36032 | 147.64833 | 31487 ft | 449 kts | 244° |
| 2026-05-05 22:54 | -36.37794 | 147.61636 | 31668 ft | 449 kts | 244° |
| 2026-05-05 22:54 | -36.39559 | 147.58427 | 31828 ft | 449 kts | 244° |
| 2026-05-05 22:54 | -36.41318 | 147.55218 | 31942 ft | 451 kts | 244° |
| 2026-05-05 22:55 | -36.43084 | 147.51994 | 32069 ft | 452 kts | 244° |
| 2026-05-05 22:55 | -36.44852 | 147.48774 | 32211 ft | 449 kts | 244° |
| 2026-05-05 22:55 | -36.46569 | 147.45636 | 32244 ft | 429 kts | 245° |
| 2026-05-05 22:55 | -36.48288 | 147.42676 | 32250 ft | 418 kts | 238° |
| 2026-05-05 22:56 | -36.50100 | 147.39868 | 32250 ft | 415 kts | 232° |
| 2026-05-05 22:56 | -36.53781 | 147.34380 | 32258 ft | 412 kts | 234° |
| 2026-05-05 22:57 | -36.57213 | 147.28684 | 32244 ft | 411 kts | 237° |
| 2026-05-05 22:57 | -36.60465 | 147.22814 | 32242 ft | 411 kts | 238° |
| 2026-05-05 22:58 | -36.63654 | 147.16908 | 32245 ft | 411 kts | 239° |
| 2026-05-05 22:58 | -36.66842 | 147.10999 | 32244 ft | 411 kts | 238° |
| 2026-05-05 22:59 | -36.70038 | 147.05093 | 32240 ft | 411 kts | 239° |
| 2026-05-05 22:59 | -36.73217 | 146.99221 | 32250 ft | 411 kts | 239° |
| 2026-05-05 23:00 | -36.78054 | 146.90258 | 31945 ft | 431 kts | 239° |
| 2026-05-05 23:00 | -36.79748 | 146.87108 | 31663 ft | 441 kts | 239° |
| 2026-05-05 23:00 | -36.81466 | 146.83918 | 31133 ft | 442 kts | 239° |
| 2026-05-05 23:01 | -36.83171 | 146.80758 | 30662 ft | 438 kts | 239° |
| 2026-05-05 23:01 | -36.84863 | 146.77619 | 30174 ft | 434 kts | 239° |
| 2026-05-05 23:01 | -36.86545 | 146.74494 | 29654 ft | 430 kts | 239° |
| 2026-05-05 23:01 | -36.88203 | 146.71410 | 29196 ft | 426 kts | 239° |
| 2026-05-05 23:02 | -36.89839 | 146.68364 | 28729 ft | 421 kts | 239° |
| 2026-05-05 23:02 | -36.91465 | 146.65329 | 28264 ft | 417 kts | 239° |
| 2026-05-05 23:02 | -36.93068 | 146.62334 | 27816 ft | 414 kts | 239° |
| 2026-05-05 23:02 | -36.94664 | 146.59348 | 27357 ft | 411 kts | 239° |
| 2026-05-05 23:03 | -36.96240 | 146.56397 | 26885 ft | 408 kts | 239° |
| 2026-05-05 23:03 | -36.97813 | 146.53449 | 26431 ft | 405 kts | 239° |
| 2026-05-05 23:03 | -36.99373 | 146.50524 | 25971 ft | 403 kts | 239° |
| 2026-05-05 23:03 | -37.00922 | 146.47617 | 25506 ft | 401 kts | 240° |
| 2026-05-05 23:04 | -37.02465 | 146.44717 | 25052 ft | 400 kts | 240° |
| 2026-05-05 23:04 | -37.04003 | 146.41823 | 24597 ft | 398 kts | 240° |
| 2026-05-05 23:04 | -37.05534 | 146.38941 | 24124 ft | 397 kts | 240° |
| 2026-05-05 23:04 | -37.07063 | 146.36059 | 23647 ft | 397 kts | 240° |
| 2026-05-05 23:05 | -37.08585 | 146.33188 | 23150 ft | 395 kts | 240° |
| 2026-05-05 23:05 | -37.10095 | 146.30342 | 22712 ft | 391 kts | 240° |
| 2026-05-05 23:05 | -37.11598 | 146.27506 | 22248 ft | 389 kts | 240° |
| 2026-05-05 23:05 | -37.13088 | 146.24691 | 21795 ft | 386 kts | 240° |
| 2026-05-05 23:06 | -37.14563 | 146.21904 | 21357 ft | 384 kts | 240° |
| 2026-05-05 23:06 | -37.16036 | 146.19113 | 20896 ft | 381 kts | 240° |
| 2026-05-05 23:06 | -37.17495 | 146.16348 | 20469 ft | 379 kts | 240° |
| 2026-05-05 23:06 | -37.18946 | 146.13595 | 20038 ft | 378 kts | 240° |
| 2026-05-05 23:07 | -37.20388 | 146.10858 | 19597 ft | 376 kts | 240° |
| 2026-05-05 23:07 | -37.21827 | 146.08124 | 19157 ft | 374 kts | 240° |
| 2026-05-05 23:07 | -37.23261 | 146.05398 | 18711 ft | 373 kts | 240° |
| 2026-05-05 23:07 | -37.24687 | 146.02685 | 18243 ft | 372 kts | 240° |
| 2026-05-05 23:08 | -37.26102 | 145.99991 | 17777 ft | 369 kts | 240° |
| 2026-05-05 23:08 | -37.27511 | 145.97310 | 17350 ft | 366 kts | 240° |
| 2026-05-05 23:08 | -37.28909 | 145.94646 | 16912 ft | 363 kts | 240° |
| 2026-05-05 23:08 | -37.30292 | 145.92009 | 16485 ft | 361 kts | 240° |
| 2026-05-05 23:09 | -37.31650 | 145.89422 | 16064 ft | 358 kts | 240° |
| 2026-05-05 23:09 | -37.33012 | 145.86826 | 15639 ft | 356 kts | 240° |
| 2026-05-05 23:09 | -37.34375 | 145.84227 | 15216 ft | 354 kts | 240° |
| 2026-05-05 23:09 | -37.35726 | 145.81650 | 14785 ft | 352 kts | 240° |
| 2026-05-05 23:10 | -37.37088 | 145.79052 | 14349 ft | 351 kts | 240° |
| 2026-05-05 23:10 | -37.38411 | 145.76527 | 13904 ft | 350 kts | 240° |
| 2026-05-05 23:10 | -37.39745 | 145.73978 | 13454 ft | 348 kts | 240° |
| 2026-05-05 23:10 | -37.41060 | 145.71461 | 13042 ft | 344 kts | 240° |
| 2026-05-05 23:11 | -37.42373 | 145.68948 | 12622 ft | 341 kts | 240° |
| 2026-05-05 23:11 | -37.43671 | 145.66463 | 12198 ft | 338 kts | 240° |
| 2026-05-05 23:11 | -37.44953 | 145.63996 | 11909 ft | 338 kts | 240° |
| 2026-05-05 23:11 | -37.46226 | 145.61493 | 11650 ft | 339 kts | 240° |
| 2026-05-05 23:12 | -37.47466 | 145.59039 | 11461 ft | 327 kts | 240° |
| 2026-05-05 23:12 | -37.48664 | 145.56663 | 11345 ft | 314 kts | 241° |
| 2026-05-05 23:12 | -37.49443 | 145.55118 | 11263 ft | 305 kts | 240° |
| 2026-05-05 23:12 | -37.50559 | 145.52904 | 11117 ft | 294 kts | 241° |
| 2026-05-05 23:13 | -37.51629 | 145.50775 | 11029 ft | 284 kts | 241° |
| 2026-05-05 23:13 | -37.52670 | 145.48699 | 10956 ft | 283 kts | 241° |
| 2026-05-05 23:13 | -37.53734 | 145.46574 | 10705 ft | 281 kts | 241° |
| 2026-05-05 23:13 | -37.54760 | 145.44528 | 10408 ft | 279 kts | 241° |
| 2026-05-05 23:14 | -37.55790 | 145.42473 | 10055 ft | 277 kts | 241° |
| 2026-05-05 23:14 | -37.56821 | 145.40416 | 9598 ft | 278 kts | 241° |
| 2026-05-05 23:14 | -37.57856 | 145.38349 | 9179 ft | 278 kts | 240° |
| 2026-05-05 23:14 | -37.58881 | 145.36300 | 8860 ft | 274 kts | 240° |
| 2026-05-05 23:15 | -37.59891 | 145.34284 | 8561 ft | 270 kts | 240° |
| 2026-05-05 23:15 | -37.60889 | 145.32289 | 8262 ft | 267 kts | 240° |
| 2026-05-05 23:15 | -37.61863 | 145.30342 | 7962 ft | 258 kts | 240° |
| 2026-05-05 23:15 | -37.62798 | 145.28472 | 7683 ft | 247 kts | 240° |
| 2026-05-05 23:16 | -37.63709 | 145.26643 | 7420 ft | 247 kts | 240° |
| 2026-05-05 23:16 | -37.64625 | 145.24801 | 7142 ft | 247 kts | 240° |
| 2026-05-05 23:16 | -37.65542 | 145.22960 | 6849 ft | 248 kts | 240° |
| 2026-05-05 23:16 | -37.66457 | 145.21124 | 6572 ft | 246 kts | 240° |
| 2026-05-05 23:17 | -37.67364 | 145.19301 | 6281 ft | 245 kts | 240° |
| 2026-05-05 23:17 | -37.68260 | 145.17502 | 6071 ft | 239 kts | 240° |
| 2026-05-05 23:17 | -37.69128 | 145.15760 | 5959 ft | 230 kts | 240° |
| 2026-05-05 23:17 | -37.69966 | 145.14075 | 5804 ft | 223 kts | 240° |
| 2026-05-05 23:18 | -37.70783 | 145.12431 | 5614 ft | 219 kts | 240° |
| 2026-05-05 23:18 | -37.71588 | 145.10809 | 5363 ft | 218 kts | 239° |
| 2026-05-05 23:18 | -37.72395 | 145.09183 | 5113 ft | 217 kts | 239° |
| 2026-05-05 23:18 | -37.73192 | 145.07575 | 4858 ft | 215 kts | 239° |
| 2026-05-05 23:19 | -37.73983 | 145.05981 | 4452 ft | 213 kts | 240° |
| 2026-05-05 23:19 | -37.74769 | 145.04396 | 4007 ft | 214 kts | 240° |
| 2026-05-05 23:19 | -37.75565 | 145.02790 | 3565 ft | 215 kts | 240° |
| 2026-05-05 23:19 | -37.76358 | 145.01186 | 3203 ft | 216 kts | 240° |
| 2026-05-05 23:20 | -37.77132 | 144.99623 | 3007 ft | 214 kts | 239° |
| 2026-05-05 23:20 | -37.77915 | 144.98045 | 2852 ft | 210 kts | 240° |
| 2026-05-05 23:20 | -37.78687 | 144.96485 | 2639 ft | 209 kts | 239° |
| 2026-05-05 23:20 | -37.79455 | 144.94934 | 2501 ft | 208 kts | 239° |
| 2026-05-05 23:21 | -37.80211 | 144.93405 | 2502 ft | 199 kts | 240° |
| 2026-05-05 23:21 | -37.80900 | 144.91962 | 2493 ft | 184 kts | 245° |
| 2026-05-05 23:21 | -37.81295 | 144.90501 | 2483 ft | 171 kts | 262° |
| 2026-05-05 23:21 | -37.81265 | 144.89020 | 2487 ft | 169 kts | 282° |
| 2026-05-05 23:22 | -37.80807 | 144.87663 | 2488 ft | 169 kts | 302° |
| 2026-05-05 23:22 | -37.79972 | 144.86607 | 2491 ft | 172 kts | 323° |
| 2026-05-05 23:22 | -37.78901 | 144.86020 | 2414 ft | 166 kts | 342° |
| 2026-05-05 23:22 | -37.77769 | 144.85757 | 2198 ft | 166 kts | 348° |
| 2026-05-05 23:23 | -37.76638 | 144.85564 | 1939 ft | 162 kts | 348° |
| 2026-05-05 23:23 | -37.75537 | 144.85380 | 1726 ft | 157 kts | 348° |
| 2026-05-05 23:23 | -37.74460 | 144.85192 | 1513 ft | 156 kts | 348° |
| 2026-05-05 23:23 | -37.73390 | 144.85000 | 1330 ft | 155 kts | 350° |
| 2026-05-05 23:24 | -37.72347 | 144.84809 | 1103 ft | 146 kts | 351° |
| 2026-05-05 23:24 | -37.71393 | 144.84637 | 919 ft | 133 kts | 352° |
| 2026-05-05 23:24 | -37.70501 | 144.84478 | 746 ft | 127 kts | 349° |
| 2026-05-05 23:24 | -37.69629 | 144.84284 | 599 ft | 128 kts | 351° |
| 2026-05-05 23:25 | -37.68748 | 144.84115 | 430 ft | 128 kts | 354° |
| 2026-05-05 23:25 | -37.67886 | 144.83966 | 363 ft | 122 kts | 351° |
| 2026-05-05 23:25 | -37.67145 | 144.83827 | 386 ft | 92 kts | 351° |
| 2026-05-05 23:25 | -37.66673 | 144.83742 | 398 ft | 38 kts | 351° |
| 2026-05-05 23:26 | -37.66514 | 144.83858 | 407 ft | 25 kts | 85° |
| 2026-05-05 23:26 | -37.66520 | 144.84022 | 407 ft | 15 kts | 94° |
| 2026-05-05 23:26 | -37.66535 | 144.84111 | 407 ft | 14 kts | 119° |
| 2026-05-05 23:26 | -37.66624 | 144.84178 | 401 ft | 18 kts | 183° |
| 2026-05-05 23:27 | -37.66743 | 144.84185 | 398 ft | 13 kts | 167° |
| 2026-05-05 23:27 | -37.66783 | 144.84247 | 391 ft | 8 kts | 88° |
| 2026-05-05 23:27 | -37.66769 | 144.84285 | 393 ft | 0 kts | 67° |
| 2026-05-05 23:28 | -37.66767 | 144.84298 | 394 ft | 6 kts | 77° |
| 2026-05-05 23:28 | -37.66764 | 144.84317 | 397 ft | 0 kts | 79° |